Time;durP1;ratioP1;P1;durP2;ratioP2;P2;SDS_P1;SDS_P2;PMS_P1;PMS_P2;Temp;Humidity;BMP_temperature;BMP_pressure;BME280_temperature;BME280_humidity;BME280_pressure;Samples;Min_cycle;Max_cycle;Signal;HPM_P1;HPM_P2
2021/11/26 00:01:42;;;;;;;51.58;23.80;;;3.30;80.70;;;;;;5043520;28;20100;-67
2021/11/26 00:04:08;;;;;;;59.08;24.98;;;3.30;80.70;;;;;;5043486;28;20121;-67
2021/11/26 00:06:34;;;;;;;52.53;23.52;;;3.30;80.60;;;;;;5040356;28;20591;-69
2021/11/26 00:09:00;;;;;;;51.05;22.88;;;3.30;80.50;;;;;;5040661;28;20045;-68
2021/11/26 00:11:27;;;;;;;50.80;23.15;;;3.20;80.50;;;;;;5039366;28;20540;-67
2021/11/26 00:14:03;;;;;;;53.50;24.15;;;3.20;80.80;;;;;;5039415;28;20084;-67
2021/11/26 00:16:34;;;;;;;52.05;22.55;;;3.20;81.00;;;;;;5041503;28;20032;-67
2021/11/26 00:19:04;;;;;;;47.67;21.83;;;3.10;81.10;;;;;;5041037;28;20029;-67
2021/11/26 00:21:30;;;;;;;49.75;22.25;;;3.20;82.00;;;;;;5044992;28;20044;-67
2021/11/26 00:23:56;;;;;;;49.75;21.85;;;3.20;81.20;;;;;;5043416;28;20078;-67
2021/11/26 00:26:21;;;;;;;50.72;22.15;;;3.20;81.20;;;;;;5040696;28;20038;-66
2021/11/26 00:28:47;;;;;;;54.22;24.20;;;3.20;81.10;;;;;;5042275;28;21821;-67
2021/11/26 00:31:13;;;;;;;52.35;22.10;;;3.20;81.00;;;;;;5043451;28;20036;-67
2021/11/26 00:33:38;;;;;;;51.38;22.48;;;3.20;81.00;;;;;;5039300;28;22663;-67
2021/11/26 00:36:04;;;;;;;53.80;23.63;;;3.20;80.90;;;;;;5041694;28;20075;-68
2021/11/26 00:38:29;;;;;;;54.22;24.65;;;3.20;80.70;;;;;;5041520;28;20064;-67
2021/11/26 00:40:55;;;;;;;53.80;22.83;;;3.20;80.60;;;;;;5042613;28;20075;-67
2021/11/26 00:43:21;;;;;;;48.05;21.92;;;3.20;80.40;;;;;;5042021;28;20064;-67
2021/11/26 00:45:46;;;;;;;46.95;20.65;;;3.10;80.60;;;;;;5040419;28;20408;-67
2021/11/26 00:48:12;;;;;;;46.65;21.35;;;3.10;80.80;;;;;;5040751;28;20037;-66
2021/11/26 00:50:38;;;;;;;49.13;22.08;;;3.10;81.10;;;;;;5037709;28;20037;-68
2021/11/26 00:53:05;;;;;;;50.92;23.17;;;3.10;81.10;;;;;;5045286;28;20562;-68
2021/11/26 00:55:31;;;;;;;50.85;22.95;;;3.10;81.00;;;;;;5040079;28;20025;-67
2021/11/26 00:57:57;;;;;;;52.13;22.77;;;3.10;80.70;;;;;;5039688;28;20602;-67
2021/11/26 01:00:22;;;;;;;50.55;22.35;;;3.10;80.60;;;;;;5038335;28;20496;-67
2021/11/26 01:02:48;;;;;;;51.47;22.20;;;3.10;80.70;;;;;;5040091;28;20041;-67
2021/11/26 01:05:15;;;;;;;50.33;21.10;;;3.10;80.90;;;;;;5041185;28;20048;-67
2021/11/26 01:07:41;;;;;;;46.28;21.00;;;3.10;80.90;;;;;;5043937;28;20025;-66
2021/11/26 01:10:14;;;;;;;45.33;20.20;;;3.10;80.90;;;;;;5041225;28;20209;-66
2021/11/26 01:12:40;;;;;;;52.97;23.08;;;3.10;80.80;;;;;;5032271;28;20048;-67
2021/11/26 01:15:09;;;;;;;57.17;23.30;;;3.10;80.90;;;;;;5035803;28;20037;-67
2021/11/26 01:17:37;;;;;;;57.42;23.85;;;3.10;80.90;;;;;;5041142;28;20025;-67
2021/11/26 01:20:05;;;;;;;56.50;23.38;;;3.10;80.80;;;;;;5038419;28;20025;-67
2021/11/26 01:22:30;;;;;;;61.45;23.45;;;3.10;80.90;;;;;;5040516;28;20033;-66
2021/11/26 01:24:56;;;;;;;58.90;24.05;;;3.10;81.00;;;;;;5043044;28;20040;-66
2021/11/26 01:27:22;;;;;;;60.70;23.20;;;3.10;80.80;;;;;;5041152;28;20025;-67
2021/11/26 01:29:47;;;;;;;54.13;21.60;;;3.10;80.70;;;;;;5041044;28;20036;-67
2021/11/26 01:32:14;;;;;;;59.75;24.45;;;3.00;80.80;;;;;;5039210;28;20032;-67
2021/11/26 01:34:39;;;;;;;60.53;24.75;;;3.00;80.90;;;;;;5039938;28;20669;-67
2021/11/26 01:37:05;;;;;;;61.97;25.00;;;3.00;80.70;;;;;;5036176;28;20036;-65
2021/11/26 01:39:31;;;;;;;62.22;25.30;;;3.00;80.80;;;;;;5040663;28;20033;-66
2021/11/26 01:41:57;;;;;;;59.45;23.95;;;3.00;80.70;;;;;;5039530;28;20443;-66
2021/11/26 01:44:23;;;;;;;60.45;23.77;;;3.00;80.90;;;;;;5039208;28;20033;-66
2021/11/26 01:46:48;;;;;;;62.15;25.45;;;3.00;81.10;;;;;;5037244;28;20033;-67
2021/11/26 01:49:15;;;;;;;67.75;26.50;;;3.00;81.20;;;;;;5040684;28;20125;-67
2021/11/26 01:51:40;;;;;;;70.22;27.00;;;3.00;81.10;;;;;;5044176;28;20040;-66
2021/11/26 01:54:07;;;;;;;68.88;25.52;;;3.00;81.30;;;;;;5044041;28;20033;-66
2021/11/26 01:56:34;;;;;;;68.20;25.77;;;3.00;80.90;;;;;;5041690;28;20535;-69
2021/11/26 01:59:00;;;;;;;63.83;25.25;;;3.00;81.10;;;;;;5038834;28;20033;-66
2021/11/26 02:01:26;;;;;;;61.75;23.67;;;3.00;81.10;;;;;;5038192;28;20041;-68
2021/11/26 02:03:52;;;;;;;65.90;25.08;;;3.00;81.30;;;;;;5040636;28;20509;-66
2021/11/26 02:06:18;;;;;;;69.22;25.60;;;3.00;81.50;;;;;;5043375;28;20025;-69
2021/11/26 02:08:44;;;;;;;65.57;25.08;;;3.00;81.60;;;;;;5045291;28;20031;-66
2021/11/26 02:11:10;;;;;;;69.78;26.67;;;3.00;81.50;;;;;;5040883;28;20037;-66
2021/11/26 02:13:36;;;;;;;63.80;25.38;;;3.10;81.60;;;;;;5043953;28;20078;-66
2021/11/26 02:16:04;;;;;;;71.30;26.38;;;3.10;81.40;;;;;;5041733;28;20059;-66
2021/11/26 02:18:30;;;;;;;68.53;26.02;;;3.10;81.40;;;;;;5042012;28;20606;-66
2021/11/26 02:20:57;;;;;;;69.93;24.73;;;3.10;81.40;;;;;;5037840;28;20056;-66
2021/11/26 02:23:23;;;;;;;67.88;24.58;;;3.20;81.40;;;;;;5044608;28;20471;-66
2021/11/26 02:25:48;;;;;;;79.78;27.35;;;3.20;81.60;;;;;;5045850;28;20029;-68
2021/11/26 02:28:16;;;;;;;74.15;25.73;;;3.20;81.40;;;;;;5045847;28;20132;-67
2021/11/26 02:30:42;;;;;;;71.10;25.55;;;3.20;81.30;;;;;;5046746;28;20071;-66
2021/11/26 02:33:11;;;;;;;71.40;23.60;;;3.20;81.30;;;;;;5044186;28;20480;-67
2021/11/26 02:35:38;;;;;;;69.32;24.63;;;3.20;81.40;;;;;;5038767;28;20037;-66
2021/11/26 02:38:07;;;;;;;68.82;25.35;;;3.20;81.40;;;;;;5045202;28;20091;-66
2021/11/26 02:40:34;;;;;;;65.78;23.33;;;3.20;81.40;;;;;;5041117;28;20466;-66
2021/11/26 02:43:00;;;;;;;70.93;24.55;;;3.20;81.40;;;;;;5045796;28;20029;-66
2021/11/26 02:45:27;;;;;;;64.40;23.10;;;3.20;81.50;;;;;;5042287;28;20033;-66
2021/11/26 02:47:53;;;;;;;67.90;23.30;;;3.20;81.60;;;;;;5042580;28;20029;-69
2021/11/26 02:50:19;;;;;;;61.30;22.83;;;3.20;81.60;;;;;;5041964;28;20064;-68
2021/11/26 02:52:46;;;;;;;64.28;24.30;;;3.20;81.60;;;;;;5046668;28;20045;-66
2021/11/26 02:55:21;;;;;;;68.57;24.27;;;3.20;81.70;;;;;;5041884;28;20029;-69
2021/11/26 02:57:47;;;;;;;58.72;21.75;;;3.30;81.70;;;;;;5046497;28;20035;-66
2021/11/26 03:00:16;;;;;;;57.50;21.88;;;3.20;81.40;;;;;;5043463;28;20078;-67
2021/11/26 03:02:42;;;;;;;61.95;23.05;;;3.30;81.60;;;;;;5045834;28;20057;-68
2021/11/26 03:05:08;;;;;;;58.40;22.60;;;3.30;81.50;;;;;;5042726;28;20441;-67
2021/11/26 03:07:34;;;;;;;60.13;22.60;;;3.30;81.40;;;;;;5044957;28;20492;-67
2021/11/26 03:10:00;;;;;;;59.38;22.58;;;3.30;81.30;;;;;;5039682;28;20061;-66
2021/11/26 03:12:26;;;;;;;57.03;21.27;;;3.30;81.30;;;;;;5036798;28;22221;-67
2021/11/26 03:14:52;;;;;;;56.42;21.08;;;3.20;81.40;;;;;;5041041;28;20051;-67
2021/11/26 03:17:19;;;;;;;60.30;21.80;;;3.30;81.50;;;;;;5043151;28;20032;-67
2021/11/26 03:19:45;;;;;;;53.40;21.13;;;3.30;81.40;;;;;;5040103;28;20021;-63
2021/11/26 03:22:11;;;;;;;54.55;20.30;;;3.20;81.30;;;;;;5042308;28;20095;-67
2021/11/26 03:24:37;;;;;;;60.00;21.95;;;3.20;81.40;;;;;;5039485;28;20072;-67
2021/11/26 03:27:03;;;;;;;60.08;22.50;;;3.20;81.40;;;;;;5042401;28;20033;-66
2021/11/26 03:29:29;;;;;;;55.67;20.50;;;3.20;81.30;;;;;;5041701;28;20047;-67
2021/11/26 03:31:54;;;;;;;56.30;21.30;;;3.20;81.30;;;;;;5042492;28;20416;-66
2021/11/26 03:34:20;;;;;;;57.15;20.73;;;3.20;81.30;;;;;;5035804;28;20064;-66
2021/11/26 03:36:46;;;;;;;58.72;22.52;;;3.20;82.10;;;;;;5040476;28;20068;-67
2021/11/26 03:39:11;;;;;;;53.53;21.08;;;3.10;81.30;;;;;;5042519;28;20549;-67
2021/11/26 03:41:37;;;;;;;58.75;21.75;;;3.10;81.20;;;;;;5041293;28;20059;-66
2021/11/26 03:44:03;;;;;;;55.90;20.77;;;3.10;82.10;;;;;;5040604;28;20076;-67
2021/11/26 03:46:28;;;;;;;55.88;20.23;;;3.00;81.30;;;;;;5041822;28;20108;-66
2021/11/26 03:48:54;;;;;;;53.85;20.33;;;3.00;82.50;;;;;;5041823;28;20037;-66
2021/11/26 03:51:20;;;;;;;54.22;20.83;;;3.00;81.80;;;;;;5041467;28;20029;-66
2021/11/26 03:53:45;;;;;;;52.50;19.88;;;3.00;81.80;;;;;;5043713;28;20033;-67
2021/11/26 03:56:11;;;;;;;55.22;21.10;;;2.90;81.80;;;;;;5042134;28;20079;-66
2021/11/26 03:58:37;;;;;;;53.50;19.75;;;2.90;81.90;;;;;;5043467;28;20451;-68
2021/11/26 04:01:02;;;;;;;57.90;20.48;;;2.90;82.00;;;;;;5038043;28;20206;-66
2021/11/26 04:03:28;;;;;;;50.92;19.92;;;2.90;82.00;;;;;;5043006;28;20033;-64
2021/11/26 04:05:54;;;;;;;53.67;19.88;;;2.90;82.90;;;;;;5038992;28;20033;-67
2021/11/26 04:08:20;;;;;;;49.92;19.40;;;2.90;82.20;;;;;;5042838;28;20071;-66
2021/11/26 04:10:45;;;;;;;52.45;20.02;;;2.90;82.20;;;;;;5037855;28;20044;-66
2021/11/26 04:13:13;;;;;;;53.53;19.75;;;2.90;82.10;;;;;;5039304;28;20033;-66
2021/11/26 04:15:38;;;;;;;49.58;18.40;;;2.90;82.00;;;;;;5042109;28;20614;-67
2021/11/26 04:18:05;;;;;;;48.55;19.25;;;2.90;82.00;;;;;;5042289;28;20075;-67
2021/11/26 04:20:31;;;;;;;56.33;21.15;;;3.00;82.20;;;;;;5038163;28;20358;-67
2021/11/26 04:22:58;;;;;;;61.70;21.38;;;3.00;82.20;;;;;;5042308;28;20950;-67
2021/11/26 04:25:24;;;;;;;58.70;20.60;;;3.00;82.00;;;;;;5044379;28;20466;-64
2021/11/26 04:27:50;;;;;;;54.28;19.17;;;3.00;81.90;;;;;;5038951;28;20040;-66
2021/11/26 04:30:18;;;;;;;49.95;18.98;;;3.00;82.00;;;;;;5040392;28;20706;-66
2021/11/26 04:32:46;;;;;;;53.28;19.83;;;3.00;82.10;;;;;;5035373;28;20507;-67
2021/11/26 04:35:12;;;;;;;55.20;20.23;;;3.00;82.30;;;;;;5038061;28;20044;-66
2021/11/26 04:37:39;;;;;;;52.20;18.98;;;3.10;82.30;;;;;;5035345;28;21754;-67
2021/11/26 04:40:08;;;;;;;50.47;18.58;;;3.10;82.10;;;;;;5037433;28;20035;-67
2021/11/26 04:42:34;;;;;;;53.17;19.55;;;3.10;82.00;;;;;;5039290;28;20075;-66
2021/11/26 04:45:00;;;;;;;51.15;19.27;;;3.10;82.00;;;;;;5043348;28;20048;-66
2021/11/26 04:47:26;;;;;;;52.45;19.85;;;3.10;81.80;;;;;;5040113;28;20033;-65
2021/11/26 04:49:52;;;;;;;54.67;19.08;;;3.10;81.60;;;;;;5032969;28;20491;-66
2021/11/26 04:52:18;;;;;;;56.90;20.42;;;3.10;81.60;;;;;;5038523;28;20051;-67
2021/11/26 04:54:44;;;;;;;52.00;19.08;;;3.10;81.60;;;;;;5041588;28;20493;-66
2021/11/26 04:57:09;;;;;;;46.42;18.25;;;3.10;81.40;;;;;;5039548;28;20040;-67
2021/11/26 04:59:35;;;;;;;47.08;18.05;;;3.00;81.30;;;;;;5036973;28;20037;-67
2021/11/26 05:02:01;;;;;;;47.35;17.90;;;3.00;81.90;;;;;;5037374;28;20040;-66
2021/11/26 05:04:27;;;;;;;47.10;18.10;;;3.00;81.70;;;;;;5038866;28;20610;-67
2021/11/26 05:06:53;;;;;;;44.05;16.63;;;2.90;81.60;;;;;;5036509;28;20037;-67
2021/11/26 05:09:18;;;;;;;49.13;17.42;;;2.90;81.60;;;;;;5042700;28;20029;-67
2021/11/26 05:11:45;;;;;;;43.17;16.48;;;2.90;81.80;;;;;;5035551;28;20029;-65
2021/11/26 05:14:16;;;;;;;46.20;16.70;;;2.80;81.90;;;;;;5041688;28;20041;-66
2021/11/26 05:16:43;;;;;;;49.60;17.58;;;2.80;82.10;;;;;;5042049;28;22275;-66
2021/11/26 05:19:08;;;;;;;44.15;17.55;;;2.90;82.30;;;;;;5039034;28;20033;-67
2021/11/26 05:21:34;;;;;;;47.42;18.85;;;2.90;82.50;;;;;;5036007;28;20043;-66
2021/11/26 05:23:59;;;;;;;54.72;20.60;;;2.80;82.30;;;;;;5040220;28;20040;-66
2021/11/26 05:26:25;;;;;;;57.95;21.55;;;2.90;82.30;;;;;;5034911;28;20087;-63
2021/11/26 05:28:52;;;;;;;48.13;19.00;;;2.90;82.20;;;;;;5034105;28;20488;-65
2021/11/26 05:31:19;;;;;;;47.67;18.40;;;2.90;82.00;;;;;;5025918;28;20110;-66
2021/11/26 05:33:44;;;;;;;55.33;20.92;;;2.90;82.00;;;;;;5039027;28;20044;-66
2021/11/26 05:36:10;;;;;;;56.55;21.63;;;2.90;82.10;;;;;;5042311;28;20041;-66
2021/11/26 05:38:36;;;;;;;56.33;20.98;;;2.90;82.20;;;;;;5037521;28;20037;-66
2021/11/26 05:41:01;;;;;;;56.03;21.98;;;2.90;82.10;;;;;;5036112;28;20052;-67
2021/11/26 05:43:27;;;;;;;54.78;21.60;;;2.90;82.20;;;;;;5037314;28;20451;-67
2021/11/26 05:45:53;;;;;;;53.47;20.25;;;2.90;82.10;;;;;;5040213;28;20049;-65
2021/11/26 05:48:18;;;;;;;56.20;21.25;;;2.90;82.80;;;;;;5038872;28;20036;-67
2021/11/26 05:50:44;;;;;;;58.10;21.45;;;2.90;82.10;;;;;;5036548;28;20127;-68
2021/11/26 05:53:10;;;;;;;51.53;19.73;;;2.80;82.10;;;;;;5037110;28;20487;-67
2021/11/26 05:55:36;;;;;;;56.03;21.02;;;2.90;82.20;;;;;;5037340;28;20039;-66
2021/11/26 05:58:01;;;;;;;51.53;20.42;;;2.90;82.30;;;;;;5037016;28;20033;-67
2021/11/26 06:00:29;;;;;;;55.78;20.30;;;2.90;82.20;;;;;;5038422;28;20037;-67
2021/11/26 06:02:55;;;;;;;54.70;21.42;;;3.00;82.20;;;;;;5037157;28;20036;-66
2021/11/26 06:05:21;;;;;;;55.33;21.52;;;3.00;82.10;;;;;;5037589;28;20022;-67
2021/11/26 06:07:47;;;;;;;55.22;20.83;;;3.00;82.00;;;;;;5034987;28;20489;-67
2021/11/26 06:10:14;;;;;;;49.30;19.45;;;3.00;82.00;;;;;;5042565;28;20132;-67
2021/11/26 06:12:41;;;;;;;51.03;20.40;;;3.00;82.50;;;;;;5039761;28;20128;-68
2021/11/26 06:15:09;;;;;;;54.20;19.63;;;3.00;81.60;;;;;;5040428;28;20053;-66
2021/11/26 06:17:35;;;;;;;52.85;20.65;;;3.00;81.60;;;;;;5038348;28;20039;-66
2021/11/26 06:20:01;;;;;;;56.70;21.50;;;3.00;81.60;;;;;;5040433;28;20041;-67
2021/11/26 06:22:27;;;;;;;59.17;22.48;;;3.00;81.70;;;;;;5041920;28;20036;-66
2021/11/26 06:24:53;;;;;;;60.15;22.70;;;3.00;81.50;;;;;;5043080;28;20048;-66
2021/11/26 06:27:19;;;;;;;57.72;23.63;;;3.00;81.30;;;;;;5042017;28;20045;-67
2021/11/26 06:29:44;;;;;;;60.08;23.20;;;3.00;81.20;;;;;;5041422;28;20035;-66
2021/11/26 06:32:10;;;;;;;54.90;21.38;;;3.00;81.10;;;;;;5041806;28;20048;-67
2021/11/26 06:34:36;;;;;;;56.45;22.38;;;3.00;81.10;;;;;;5042066;28;20559;-67
2021/11/26 06:37:01;;;;;;;53.42;20.73;;;2.90;81.10;;;;;;5043137;28;20052;-66
2021/11/26 06:39:27;;;;;;;53.17;21.05;;;2.90;81.20;;;;;;5044340;28;20040;-66
2021/11/26 06:41:53;;;;;;;52.95;20.50;;;2.80;81.30;;;;;;5043846;28;20540;-66
2021/11/26 06:44:19;;;;;;;49.60;18.83;;;2.80;81.30;;;;;;5042483;28;20029;-67
2021/11/26 06:46:44;;;;;;;49.47;19.75;;;2.80;81.50;;;;;;5042026;28;20036;-67
2021/11/26 06:49:10;;;;;;;53.72;19.85;;;2.80;81.70;;;;;;5042914;28;20408;-66
2021/11/26 06:51:36;;;;;;;51.40;20.08;;;2.80;81.60;;;;;;5045587;28;20044;-67
2021/11/26 06:54:02;;;;;;;50.05;19.05;;;2.80;81.60;;;;;;5045446;28;20037;-66
2021/11/26 06:56:28;;;;;;;52.75;19.65;;;2.80;81.60;;;;;;5044875;28;20404;-66
2021/11/26 06:58:57;;;;;;;48.75;20.20;;;2.80;81.60;;;;;;5046175;28;20126;-66
2021/11/26 07:01:22;;;;;;;52.08;20.77;;;2.80;81.80;;;;;;5045414;28;20525;-67
2021/11/26 07:03:48;;;;;;;55.90;20.45;;;2.80;81.60;;;;;;5045424;28;20037;-66
2021/11/26 07:06:14;;;;;;;54.78;20.20;;;2.80;81.40;;;;;;5044587;28;20033;-67
2021/11/26 07:08:39;;;;;;;49.45;19.08;;;2.90;81.50;;;;;;5044551;28;20041;-67
2021/11/26 07:11:05;;;;;;;52.35;20.08;;;2.80;81.60;;;;;;5043168;28;20037;-67
2021/11/26 07:13:31;;;;;;;54.45;20.48;;;2.80;81.80;;;;;;5045582;28;20428;-67
2021/11/26 07:15:56;;;;;;;52.47;20.38;;;2.90;82.00;;;;;;5045971;28;20523;-67
2021/11/26 07:18:22;;;;;;;48.45;18.38;;;2.90;82.00;;;;;;5043985;28;20554;-66
2021/11/26 07:20:48;;;;;;;49.40;18.85;;;2.90;81.90;;;;;;5045093;28;20740;-67
2021/11/26 07:23:14;;;;;;;52.03;20.35;;;3.00;82.00;;;;;;5045216;28;20083;-67
2021/11/26 07:25:40;;;;;;;46.65;19.50;;;3.00;81.80;;;;;;5043918;28;20041;-67
2021/11/26 07:28:06;;;;;;;50.10;19.38;;;3.00;81.50;;;;;;5044176;28;20045;-66
2021/11/26 07:30:31;;;;;;;47.55;19.35;;;3.00;81.30;;;;;;5042172;28;20116;-67
2021/11/26 07:32:57;;;;;;;52.15;19.90;;;3.10;81.40;;;;;;5042152;28;20049;-67
2021/11/26 07:35:23;;;;;;;51.65;19.08;;;3.10;81.40;;;;;;5042938;28;20045;-65
2021/11/26 07:37:49;;;;;;;49.78;19.88;;;3.10;81.40;;;;;;5039086;28;20571;-67
2021/11/26 07:40:15;;;;;;;55.00;21.25;;;3.10;81.40;;;;;;5042425;28;20090;-68
2021/11/26 07:42:42;;;;;;;50.80;20.27;;;3.10;81.40;;;;;;5042869;28;20488;-67
2021/11/26 07:45:09;;;;;;;48.33;19.58;;;3.20;81.40;;;;;;5045048;28;20423;-67
2021/11/26 07:47:36;;;;;;;48.97;20.27;;;3.20;81.30;;;;;;5042775;28;20415;-67
2021/11/26 07:50:02;;;;;;;50.33;20.08;;;3.20;81.00;;;;;;5042909;28;20185;-66
2021/11/26 07:52:28;;;;;;;48.17;18.77;;;3.20;80.90;;;;;;5041935;28;20038;-67
2021/11/26 07:54:54;;;;;;;51.17;19.88;;;3.20;81.40;;;;;;5045056;28;20374;-66
2021/11/26 07:57:19;;;;;;;49.03;19.80;;;3.20;81.10;;;;;;5045262;28;20516;-67
2021/11/26 07:59:45;;;;;;;50.70;19.50;;;3.20;80.90;;;;;;5046641;28;20052;-66
2021/11/26 08:02:11;;;;;;;54.05;20.80;;;3.20;81.60;;;;;;5040867;28;20068;-63
2021/11/26 08:04:37;;;;;;;52.60;20.73;;;3.20;80.90;;;;;;5045785;28;20504;-66
2021/11/26 08:07:02;;;;;;;53.88;21.13;;;3.30;80.90;;;;;;5042652;28;20964;-67
2021/11/26 08:09:28;;;;;;;54.50;21.67;;;3.30;81.80;;;;;;5045515;28;20041;-67
2021/11/26 08:11:55;;;;;;;51.83;20.52;;;3.30;81.00;;;;;;5041953;28;20041;-67
2021/11/26 08:14:22;;;;;;;49.50;20.10;;;3.30;80.90;;;;;;5042335;28;20044;-65
2021/11/26 08:16:50;;;;;;;51.63;20.70;;;3.30;80.80;;;;;;5045319;28;20052;-66
2021/11/26 08:19:16;;;;;;;51.10;19.38;;;3.40;80.90;;;;;;5045863;28;20056;-66
2021/11/26 08:21:42;;;;;;;48.60;20.10;;;3.40;80.90;;;;;;5044244;28;20032;-66
2021/11/26 08:24:09;;;;;;;49.35;19.63;;;3.40;80.60;;;;;;5045962;28;20033;-66
2021/11/26 08:26:36;;;;;;;52.05;19.95;;;3.40;80.30;;;;;;5045917;28;20048;-67
2021/11/26 08:29:03;;;;;;;48.15;19.40;;;3.40;80.20;;;;;;5045274;28;20045;-67
2021/11/26 08:31:29;;;;;;;52.67;19.27;;;3.40;80.40;;;;;;5045393;28;20036;-67
2021/11/26 08:33:54;;;;;;;47.03;18.58;;;3.40;80.50;;;;;;5043263;28;20043;-67
2021/11/26 08:36:20;;;;;;;47.42;18.38;;;3.40;80.40;;;;;;5041909;28;20035;-67
2021/11/26 08:38:47;;;;;;;52.65;20.13;;;3.40;80.40;;;;;;5044589;28;20049;-66
2021/11/26 08:41:13;;;;;;;44.88;19.52;;;3.40;80.20;;;;;;5045397;28;20045;-67
2021/11/26 08:43:38;;;;;;;44.35;18.48;;;3.40;80.00;;;;;;5042912;28;20040;-66
2021/11/26 08:46:04;;;;;;;49.13;19.15;;;3.40;80.00;;;;;;5043451;28;20124;-66
2021/11/26 08:48:29;;;;;;;43.85;17.17;;;3.40;79.90;;;;;;5042970;28;20067;-66
2021/11/26 08:50:56;;;;;;;47.05;17.85;;;3.40;80.00;;;;;;5044112;28;20033;-66
2021/11/26 08:53:22;;;;;;;46.03;18.83;;;3.40;80.20;;;;;;5045290;28;20156;-66
2021/11/26 08:55:53;;;;;;;45.40;19.25;;;3.40;80.00;;;;;;5045840;28;20037;-67
2021/11/26 08:58:18;;;;;;;48.03;19.50;;;3.40;80.00;;;;;;5042242;28;20600;-65
2021/11/26 09:00:44;;;;;;;48.35;19.90;;;3.40;80.20;;;;;;5043828;28;20095;-65
2021/11/26 09:03:12;;;;;;;44.38;18.90;;;3.40;80.10;;;;;;5038698;28;20055;-66
2021/11/26 09:05:38;;;;;;;52.40;20.27;;;3.50;80.20;;;;;;5042066;28;20471;-66
2021/11/26 09:08:04;;;;;;;47.22;18.98;;;3.50;80.00;;;;;;5044144;28;20087;-66
2021/11/26 09:10:35;;;;;;;45.63;18.58;;;3.40;79.90;;;;;;5042348;28;20053;-66
2021/11/26 09:13:02;;;;;;;51.50;19.67;;;3.40;80.80;;;;;;5041379;28;20033;-66
2021/11/26 09:15:28;;;;;;;48.47;19.73;;;3.40;80.10;;;;;;5042094;28;20052;-66
2021/11/26 09:17:54;;;;;;;51.70;19.83;;;3.40;80.20;;;;;;5045080;28;20037;-65
2021/11/26 09:20:21;;;;;;;49.70;19.77;;;3.30;80.30;;;;;;5043539;28;20601;-66
2021/11/26 09:22:47;;;;;;;45.83;19.27;;;3.30;80.30;;;;;;5042533;28;20051;-66
2021/11/26 09:25:13;;;;;;;42.20;18.08;;;3.30;80.30;;;;;;5043165;28;20036;-66
2021/11/26 09:27:39;;;;;;;49.88;19.35;;;3.20;80.40;;;;;;5042079;28;20041;-66
2021/11/26 09:30:07;;;;;;;44.92;18.98;;;3.20;80.60;;;;;;5044261;28;20044;-66
2021/11/26 09:32:33;;;;;;;43.67;18.23;;;3.20;80.60;;;;;;5044367;28;20051;-66
2021/11/26 09:34:58;;;;;;;44.47;17.65;;;3.30;80.70;;;;;;5043157;28;20523;-66
2021/11/26 09:37:24;;;;;;;51.17;20.13;;;3.20;80.60;;;;;;5044729;28;20044;-65
2021/11/26 09:39:50;;;;;;;44.60;19.02;;;3.30;80.70;;;;;;5042448;28;20118;-66
2021/11/26 09:42:16;;;;;;;45.67;19.00;;;3.30;80.40;;;;;;5043333;28;20040;-66
2021/11/26 09:44:44;;;;;;;49.45;20.05;;;3.30;80.30;;;;;;5043661;28;20033;-66
2021/11/26 09:47:09;;;;;;;52.20;20.52;;;3.40;80.40;;;;;;5041050;28;20064;-66
2021/11/26 09:49:35;;;;;;;52.15;21.65;;;3.30;80.50;;;;;;5046179;28;20614;-66
2021/11/26 09:52:02;;;;;;;58.05;22.83;;;3.40;80.60;;;;;;5044542;28;20043;-66
2021/11/26 09:54:27;;;;;;;51.75;21.50;;;3.40;80.60;;;;;;5036732;28;20112;-66
2021/11/26 09:56:53;;;;;;;53.08;20.88;;;3.40;80.50;;;;;;5045856;28;20124;-66
2021/11/26 09:59:21;;;;;;;53.85;21.42;;;3.40;80.40;;;;;;5042576;28;20036;-66
2021/11/26 10:01:46;;;;;;;61.42;23.65;;;3.40;80.60;;;;;;5044773;28;20123;-66
2021/11/26 10:04:19;;;;;;;62.75;25.40;;;3.40;80.70;;;;;;5042755;28;20108;-66
2021/11/26 10:06:46;;;;;;;57.63;23.13;;;3.50;80.90;;;;;;5041819;28;20118;-65
2021/11/26 10:09:22;;;;;;;58.50;23.35;;;3.50;80.70;;;;;;5043437;28;20033;-66
2021/11/26 10:11:53;;;;;;;60.72;24.08;;;3.60;80.20;;;;;;5038479;28;20041;-66
2021/11/26 10:14:23;;;;;;;55.60;22.55;;;3.60;80.30;;;;;;5042032;28;20124;-65
2021/11/26 10:16:55;;;;;;;55.90;23.67;;;3.60;80.30;;;;;;5044066;28;20443;-65
2021/11/26 10:19:46;;;;;;;57.65;23.55;;;3.60;80.20;;;;;;5043686;28;20033;-66
2021/11/26 10:22:24;;;;;;;59.00;23.42;;;3.60;80.20;;;;;;5041820;28;20037;-66
2021/11/26 10:25:03;;;;;;;57.08;23.65;;;3.60;80.40;;;;;;5043360;28;20029;-66
2021/11/26 10:27:33;;;;;;;56.28;22.88;;;3.60;80.20;;;;;;5048549;28;20112;-66
2021/11/26 10:30:15;;;;;;;57.40;22.73;;;3.60;80.30;;;;;;5047065;28;20083;-66
2021/11/26 10:32:59;;;;;;;52.40;20.85;;;3.60;80.40;;;;;;5046629;28;20029;-66
2021/11/26 10:35:30;;;;;;;54.10;21.70;;;3.60;80.30;;;;;;5046733;28;20116;-65
2021/11/26 10:38:07;;;;;;;52.28;21.42;;;3.70;80.30;;;;;;5045569;28;20037;-66
2021/11/26 10:40:36;;;;;;;53.10;22.10;;;3.70;80.20;;;;;;5045127;28;20043;-67
2021/11/26 10:43:04;;;;;;;58.63;22.30;;;3.70;80.30;;;;;;5046005;28;20029;-65
2021/11/26 10:45:48;;;;;;;51.13;22.13;;;3.70;80.20;;;;;;5044481;28;20953;-67
2021/11/26 10:51:30;;;;;;;52.95;20.25;;;3.70;80.10;;;;;;5047318;28;20045;-66
2021/11/26 10:59:26;;;;;;;42.45;18.25;;;3.80;80.00;;;;;;5043644;28;20033;-67
2021/11/26 11:01:52;;;;;;;45.90;18.80;;;3.80;79.80;;;;;;5047403;28;20454;-66
2021/11/26 11:04:20;;;;;;;50.55;20.10;;;3.90;79.90;;;;;;5045673;28;20266;-66
2021/11/26 11:07:04;;;;;;;51.13;19.73;;;3.80;79.70;;;;;;5041292;28;20064;-73
2021/11/26 11:09:58;;;;;;;51.15;20.25;;;3.80;79.70;;;;;;5046366;28;20504;-67
2021/11/26 11:12:33;;;;;;;51.28;20.00;;;3.80;79.70;;;;;;5042103;28;20041;-67
2021/11/26 11:15:01;;;;;;;55.65;21.08;;;3.80;79.80;;;;;;5046135;28;20064;-66
2021/11/26 11:17:28;;;;;;;57.35;22.45;;;3.80;79.90;;;;;;5046288;28;20029;-66
2021/11/26 11:19:57;;;;;;;50.25;21.15;;;3.80;79.80;;;;;;5046078;28;20519;-67
2021/11/26 11:22:24;;;;;;;55.00;22.13;;;3.80;79.90;;;;;;5047405;28;20120;-67
2021/11/26 11:24:50;;;;;;;53.10;21.77;;;3.80;79.90;;;;;;5044348;28;20029;-67
2021/11/26 11:27:16;;;;;;;52.03;20.90;;;3.90;80.00;;;;;;5046594;28;20040;-67
2021/11/26 11:29:42;;;;;;;50.38;20.95;;;3.80;80.00;;;;;;5042005;28;20029;-68
2021/11/26 11:32:10;;;;;;;51.70;21.48;;;3.80;80.20;;;;;;5047119;28;20048;-66
2021/11/26 11:34:36;;;;;;;48.13;21.30;;;3.90;80.20;;;;;;5042953;28;20057;-67
2021/11/26 11:37:06;;;;;;;50.05;21.15;;;3.90;80.30;;;;;;5042781;28;20029;-66
2021/11/26 11:39:44;;;;;;;45.13;20.42;;;3.90;80.20;;;;;;5045037;28;20437;-67
2021/11/26 11:42:09;;;;;;;48.40;20.85;;;3.90;80.00;;;;;;5046420;28;20037;-66
2021/11/26 11:44:37;;;;;;;47.67;19.77;;;3.90;80.10;;;;;;5044465;28;20404;-66
2021/11/26 11:47:21;;;;;;;44.65;20.10;;;3.90;80.10;;;;;;5046281;28;20132;-67
2021/11/26 11:49:47;;;;;;;43.03;18.52;;;4.00;80.10;;;;;;5046837;28;20369;-67
2021/11/26 11:52:15;;;;;;;45.40;19.50;;;4.00;80.10;;;;;;5044838;28;20040;-67
2021/11/26 11:54:43;;;;;;;42.63;18.73;;;4.00;79.90;;;;;;5042134;28;20047;-66
2021/11/26 11:57:22;;;;;;;45.88;18.95;;;4.00;79.70;;;;;;5042249;28;20123;-66
2021/11/26 11:59:50;;;;;;;44.65;19.73;;;4.00;79.70;;;;;;5043536;28;20040;-66
2021/11/26 12:02:25;;;;;;;46.30;19.13;;;4.00;79.70;;;;;;5043195;28;20048;-67
2021/11/26 12:04:53;;;;;;;43.78;18.23;;;4.00;79.80;;;;;;5044160;28;20465;-66
2021/11/26 12:07:25;;;;;;;41.33;17.95;;;4.00;79.90;;;;;;5044319;28;20059;-66
2021/11/26 12:10:02;;;;;;;42.05;18.63;;;4.00;79.70;;;;;;5042592;28;20082;-67
2021/11/26 12:12:27;;;;;;;40.83;17.77;;;4.00;79.60;;;;;;5038103;28;20175;-66
2021/11/26 12:14:59;;;;;;;40.83;17.77;;;4.00;79.70;;;;;;5044174;28;20599;-66
2021/11/26 12:17:37;;;;;;;42.63;17.80;;;4.00;79.50;;;;;;5045039;28;20082;-67
2021/11/26 12:20:06;;;;;;;36.90;16.55;;;4.00;79.50;;;;;;5043668;28;20040;-66
2021/11/26 12:22:48;;;;;;;39.95;17.85;;;4.00;79.60;;;;;;5044230;28;20064;-67
2021/11/26 12:28:12;;;;;;;36.53;16.70;;;4.10;79.70;;;;;;5043356;28;20033;-66
2021/11/26 12:30:42;;;;;;;37.28;16.98;;;4.10;80.60;;;;;;5033216;28;20033;-67
2021/11/26 12:33:17;;;;;;;38.33;17.60;;;4.10;79.70;;;;;;5039933;28;20233;-67
2021/11/26 12:36:04;;;;;;;38.80;16.83;;;4.10;79.70;;;;;;5040005;28;20184;-67
2021/11/26 12:38:41;;;;;;;35.40;16.48;;;4.10;79.70;;;;;;5039576;28;20512;-67
2021/11/26 12:41:07;;;;;;;35.70;16.17;;;4.10;79.70;;;;;;5043163;28;20120;-66
2021/11/26 12:43:41;;;;;;;37.42;16.38;;;4.20;79.90;;;;;;5044282;28;20348;-66
2021/11/26 12:46:20;;;;;;;38.05;17.25;;;4.20;80.00;;;;;;5044242;28;20301;-66
2021/11/26 12:52:09;;;;;;;37.78;16.23;;;4.20;79.90;;;;;;5040792;28;20389;-67